Time;durP1;ratioP1;P1;durP2;ratioP2;P2;SDS_P1;SDS_P2;PMS_P1;PMS_P2;Temp;Humidity;BMP_temperature;BMP_pressure;BME280_temperature;BME280_humidity;BME280_pressure;Samples;Min_cycle;Max_cycle;Signal;HPM_P1;HPM_P2
2023/01/03 00:00:35;;;;;;;1.42;0.40;;;9.00;99.90;;;;;;5072476;28;20052;-68
2023/01/03 00:03:01;;;;;;;2.08;0.40;;;9.00;99.90;;;;;;5073216;28;20047;-68
2023/01/03 00:05:26;;;;;;;0.40;0.30;;;9.00;99.90;;;;;;5074657;28;20041;-67
2023/01/03 00:07:52;;;;;;;1.65;0.65;;;8.90;99.90;;;;;;5072810;28;20394;-67
2023/01/03 00:10:17;;;;;;;3.20;0.50;;;9.00;99.90;;;;;;5073890;28;20027;-67
2023/01/03 00:12:43;;;;;;;1.02;0.57;;;8.90;99.90;;;;;;5073122;28;20078;-67
2023/01/03 00:15:09;;;;;;;4.03;1.50;;;8.90;99.90;;;;;;5073943;28;20083;-69
2023/01/03 00:17:35;;;;;;;2.00;0.55;;;8.80;99.90;;;;;;5055915;28;20082;-67
2023/01/03 00:20:00;;;;;;;0.95;0.38;;;8.90;99.90;;;;;;5070275;28;20032;-68
2023/01/03 00:22:30;;;;;;;1.15;0.30;;;8.90;99.90;;;;;;5059434;28;20460;-68
2023/01/03 00:24:56;;;;;;;0.95;0.55;;;9.00;99.90;;;;;;5034915;28;20037;-68
2023/01/03 00:27:21;;;;;;;0.30;0.30;;;8.90;99.90;;;;;;5053909;28;20033;-67
2023/01/03 00:29:47;;;;;;;1.30;0.43;;;8.90;99.90;;;;;;5045306;28;20025;-68
2023/01/03 00:32:13;;;;;;;1.15;0.32;;;9.00;99.90;;;;;;5053574;28;20497;-68
2023/01/03 00:34:39;;;;;;;1.05;0.60;;;9.00;99.90;;;;;;5052684;28;20146;-68
2023/01/03 00:37:04;;;;;;;0.68;0.60;;;8.90;99.90;;;;;;5062211;28;20033;-67
2023/01/03 00:39:30;;;;;;;0.88;0.50;;;8.80;99.90;;;;;;5053339;28;20429;-68
2023/01/03 00:41:56;;;;;;;0.50;0.40;;;8.80;99.90;;;;;;5052835;28;20029;-67
2023/01/03 00:44:21;;;;;;;1.85;0.40;;;8.70;99.90;;;;;;5053484;28;20386;-67
2023/01/03 00:46:47;;;;;;;1.90;0.50;;;8.70;99.90;;;;;;5052822;28;20025;-68
2023/01/03 00:49:12;;;;;;;0.52;0.40;;;8.60;99.90;;;;;;5053283;28;20025;-68
2023/01/03 00:51:40;;;;;;;0.57;0.50;;;8.60;99.90;;;;;;5052988;28;20132;-68
2023/01/03 00:54:07;;;;;;;0.73;0.30;;;8.60;99.90;;;;;;5052870;28;20485;-68
2023/01/03 00:56:35;;;;;;;0.80;0.38;;;8.70;99.90;;;;;;5043441;28;20092;-67
2023/01/03 00:59:01;;;;;;;1.15;0.47;;;8.60;99.90;;;;;;5047994;28;20068;-68
2023/01/03 01:01:30;;;;;;;1.33;0.57;;;8.60;99.90;;;;;;5044173;28;20033;-67
2023/01/03 01:04:04;;;;;;;1.10;0.30;;;8.60;99.90;;;;;;5051636;28;20029;-68
2023/01/03 01:06:34;;;;;;;0.63;0.50;;;8.50;99.90;;;;;;5053593;28;20029;-68
2023/01/03 01:09:01;;;;;;;0.75;0.50;;;8.50;99.90;;;;;;5051923;28;20025;-68
2023/01/03 01:11:28;;;;;;;0.47;0.47;;;8.40;99.90;;;;;;5052656;28;20033;-67
2023/01/03 01:13:54;;;;;;;1.50;0.30;;;8.40;99.90;;;;;;5051758;28;20429;-68
2023/01/03 01:16:26;;;;;;;0.75;0.52;;;8.40;99.90;;;;;;5053060;28;20065;-67
2023/01/03 01:18:53;;;;;;;1.00;0.60;;;8.40;99.90;;;;;;5052067;28;20079;-68
2023/01/03 01:21:22;;;;;;;0.65;0.35;;;8.30;99.90;;;;;;5052704;28;20108;-68
2023/01/03 01:23:48;;;;;;;0.55;0.40;;;8.30;99.90;;;;;;5066313;28;20084;-67
2023/01/03 01:26:16;;;;;;;0.82;0.82;;;8.20;99.90;;;;;;5072583;28;20029;-68
2023/01/03 01:28:42;;;;;;;0.43;0.30;;;8.20;99.90;;;;;;5067313;28;20522;-67
2023/01/03 01:31:12;;;;;;;1.30;0.68;;;8.10;99.90;;;;;;5065983;28;20024;-67
2023/01/03 01:33:38;;;;;;;1.38;0.60;;;8.10;99.90;;;;;;5060225;28;20036;-67
2023/01/03 01:36:17;;;;;;;1.73;0.80;;;8.10;99.90;;;;;;5077342;28;20456;-68
2023/01/03 01:38:44;;;;;;;0.82;0.82;;;8.10;99.90;;;;;;5071457;28;20056;-68
2023/01/03 01:44:36;;;;;;;0.75;0.52;;;8.10;99.90;;;;;;5072706;28;20070;-68
2023/01/03 01:46:46;;;;;;;1.00;0.52;;;8.00;99.90;;;;;;5071586;28;20059;-68
2023/01/03 01:49:17;;;;;;;0.60;0.38;;;8.00;99.90;;;;;;5071902;28;20029;-68
2023/01/03 01:51:43;;;;;;;0.60;0.28;;;8.00;99.90;;;;;;5071914;28;20025;-68
2023/01/03 01:54:10;;;;;;;1.25;0.50;;;8.00;99.90;;;;;;5071401;28;20031;-68
2023/01/03 01:56:41;;;;;;;2.67;0.40;;;8.00;99.90;;;;;;5072203;28;20377;-68
2023/01/03 01:59:08;;;;;;;1.60;0.60;;;7.90;99.90;;;;;;5070763;28;20062;-68
2023/01/03 02:01:34;;;;;;;0.90;0.63;;;7.90;99.90;;;;;;5071921;28;20029;-66
2023/01/03 02:04:25;;;;;;;2.15;0.60;;;7.90;99.90;;;;;;5057363;28;20150;-67
2023/01/03 02:06:51;;;;;;;0.60;0.30;;;7.90;99.90;;;;;;5062968;28;20044;-67
2023/01/03 02:09:17;;;;;;;1.17;0.73;;;7.80;99.90;;;;;;5071624;28;20031;-67
2023/01/03 02:14:49;;;;;;;2.28;0.60;;;7.80;99.90;;;;;;5070485;28;20052;-67
2023/01/03 02:17:34;;;;;;;1.95;0.60;;;7.80;99.90;;;;;;5071349;28;20032;-67
2023/01/03 02:20:30;;;;;;;0.85;0.43;;;7.80;99.90;;;;;;5070792;28;20102;-67
2023/01/03 02:23:23;;;;;;;2.80;0.70;;;7.70;99.90;;;;;;5069735;28;20080;-67
2023/01/03 02:26:17;;;;;;;0.73;0.38;;;7.70;99.90;;;;;;5071064;28;20036;-67
2023/01/03 02:29:14;;;;;;;0.73;0.47;;;7.70;99.90;;;;;;5066525;28;20120;-68
2023/01/03 02:31:43;;;;;;;0.93;0.60;;;7.70;99.90;;;;;;5068346;28;20036;-68
2023/01/03 02:34:14;;;;;;;0.88;0.45;;;7.70;99.90;;;;;;5071034;28;20032;-67
2023/01/03 02:36:59;;;;;;;0.73;0.40;;;7.70;99.90;;;;;;5076518;28;20086;-67
2023/01/03 02:39:52;;;;;;;1.77;0.32;;;7.60;99.90;;;;;;5069185;28;20029;-67
2023/01/03 02:42:57;;;;;;;1.58;0.40;;;7.60;99.90;;;;;;5063795;28;20017;-67
2023/01/03 02:45:47;;;;;;;0.82;0.60;;;7.50;99.90;;;;;;5062127;28;20402;-67
2023/01/03 02:48:13;;;;;;;;;;;;;;;;;;5058822;28;20351;-67
2023/01/03 02:50:45;;;;;;;0.40;0.40;;;;;;;;;;5070833;28;19911;-67
2023/01/03 02:53:13;;;;;;;0.43;0.40;;;;;;;;;;5070476;28;20076;-68
2023/01/03 02:55:40;;;;;;;2.78;1.13;;;;;;;;;;5070534;28;20052;-69
2023/01/03 02:58:08;;;;;;;0.65;0.40;;;;;;;;;;5070910;28;20032;-68
2023/01/03 03:00:38;;;;;;;0.77;0.50;;;;;;;;;;5065132;28;20021;-68
2023/01/03 03:03:09;;;;;;;0.88;0.50;;;7.30;99.90;;;;;;5059924;28;20058;-68
2023/01/03 03:06:35;;;;;;;2.15;0.55;;;7.20;99.90;;;;;;5069577;28;20028;-68
2023/01/03 03:09:01;;;;;;;1.15;0.50;;;7.20;99.90;;;;;;4988937;28;20037;-69
2023/01/03 03:14:29;;;;;;;1.17;0.60;;;7.10;99.90;;;;;;5038520;28;20082;-68
2023/01/03 03:17:03;;;;;;;1.00;0.50;;;7.10;99.90;;;;;;5069755;28;20051;-68
2023/01/03 03:25:23;;;;;;;2.50;0.57;;;7.00;99.90;;;;;;5070728;28;20035;-68
2023/01/03 03:30:40;;;;;;;1.38;0.63;;;7.00;99.90;;;;;;5062052;28;20081;-68
2023/01/03 03:33:08;;;;;;;1.80;0.50;;;6.90;99.90;;;;;;5060739;28;20035;-67
2023/01/03 03:35:58;;;;;;;0.65;0.50;;;6.90;99.90;;;;;;5077303;28;20178;-67
2023/01/03 03:38:36;;;;;;;1.15;0.70;;;6.90;99.90;;;;;;5062010;28;20032;-67
2023/01/03 03:47:17;;;;;;;2.70;0.60;;;6.80;99.90;;;;;;5074031;28;20047;-66
2023/01/03 03:49:47;;;;;;;2.72;0.75;;;6.80;99.90;;;;;;5073144;28;20024;-67
2023/01/03 03:52:16;;;;;;;0.70;0.60;;;6.80;99.90;;;;;;5074698;28;20053;-67
2023/01/03 03:54:48;;;;;;;1.17;0.60;;;6.80;99.90;;;;;;5064732;28;20036;-67
2023/01/03 03:57:34;;;;;;;1.67;0.50;;;6.70;99.90;;;;;;5071011;28;20071;-67
2023/01/03 04:00:10;;;;;;;1.10;0.47;;;6.70;99.90;;;;;;5071270;28;20496;-67
2023/01/03 04:02:36;;;;;;;3.72;0.50;;;6.60;99.90;;;;;;5074040;28;20025;-67
2023/01/03 04:05:06;;;;;;;0.70;0.63;;;6.60;99.90;;;;;;5073547;28;20032;-67
2023/01/03 04:07:33;;;;;;;;;;;6.50;99.90;;;;;;5075059;28;20028;-67
2023/01/03 04:09:58;;;;;;;0.73;0.60;;;6.50;99.90;;;;;;5073048;28;19908;-67
2023/01/03 04:12:24;;;;;;;1.08;0.50;;;6.40;99.90;;;;;;5074697;28;20031;-68
2023/01/03 04:14:49;;;;;;;1.00;0.43;;;6.30;99.90;;;;;;5071132;28;20103;-68
2023/01/03 04:17:15;;;;;;;1.92;0.60;;;6.30;99.90;;;;;;5068995;28;20461;-67
2023/01/03 04:19:41;;;;;;;1.23;0.57;;;6.30;99.90;;;;;;5061673;28;20037;-68
2023/01/03 04:22:06;;;;;;;2.53;0.60;;;6.20;99.90;;;;;;5058852;28;20128;-68
2023/01/03 04:24:32;;;;;;;1.73;0.60;;;6.20;99.90;;;;;;5070152;28;20056;-68
2023/01/03 04:26:57;;;;;;;0.98;0.60;;;6.10;99.90;;;;;;5063124;28;20051;-68
2023/01/03 04:29:26;;;;;;;0.93;0.50;;;;;;;;;;5069711;28;20032;-68
2023/01/03 04:31:51;;;;;;;3.45;1.30;;;6.10;99.90;;;;;;5058812;28;20124;-68
2023/01/03 04:34:17;;;;;;;2.40;0.90;;;6.10;99.90;;;;;;5066674;28;20521;-67
2023/01/03 04:36:42;;;;;;;1.17;0.80;;;6.00;99.90;;;;;;5067230;28;20037;-68
2023/01/03 04:39:08;;;;;;;4.78;0.73;;;5.90;99.90;;;;;;5063112;28;20054;-67
2023/01/03 04:41:34;;;;;;;6.88;0.90;;;5.90;99.90;;;;;;5067211;28;20090;-67
2023/01/03 04:44:03;;;;;;;0.55;0.55;;;5.90;99.90;;;;;;5069241;28;20094;-68
2023/01/03 04:46:38;;;;;;;3.10;0.90;;;5.80;99.90;;;;;;5071310;28;20021;-67
2023/01/03 04:49:05;;;;;;;1.50;0.68;;;5.80;99.90;;;;;;5061752;28;20640;-68
2023/01/03 04:51:32;;;;;;;1.40;0.98;;;5.80;99.90;;;;;;5072562;28;20048;-67
2023/01/03 04:53:58;;;;;;;2.05;1.10;;;5.80;99.90;;;;;;5057340;28;20379;-68
2023/01/03 04:56:29;;;;;;;1.85;1.00;;;5.80;99.90;;;;;;5072607;28;20542;-67
2023/01/03 04:58:55;;;;;;;2.17;0.98;;;5.80;99.90;;;;;;5064304;28;20028;-67
2023/01/03 05:01:21;;;;;;;3.08;0.98;;;5.80;99.90;;;;;;5071910;28;20389;-66
2023/01/03 05:03:48;;;;;;;2.80;1.02;;;5.80;99.90;;;;;;5070678;28;20100;-68
2023/01/03 05:06:14;;;;;;;3.75;1.10;;;5.80;99.90;;;;;;5072311;28;20058;-68
2023/01/03 05:08:40;;;;;;;1.75;1.00;;;5.80;99.90;;;;;;5054844;28;20024;-70
2023/01/03 05:11:06;;;;;;;4.32;1.15;;;5.90;99.90;;;;;;5052425;28;20032;-69
2023/01/03 05:13:32;;;;;;;2.33;1.30;;;5.90;99.90;;;;;;5051965;28;20104;-69
2023/01/03 05:16:10;;;;;;;4.63;1.63;;;6.00;99.90;;;;;;5060232;28;20478;-69
2023/01/03 05:18:37;;;;;;;2.45;1.15;;;6.00;99.90;;;;;;5071649;28;20032;-68
2023/01/03 05:26:40;;;;;;;1.80;1.00;;;6.10;99.90;;;;;;5072271;28;20118;-71
2023/01/03 05:29:07;;;;;;;2.88;0.95;;;6.10;99.90;;;;;;5072905;28;20048;-68
2023/01/03 05:31:33;;;;;;;2.30;0.85;;;6.20;99.90;;;;;;5073192;28;20021;-67
2023/01/03 05:33:59;;;;;;;2.10;1.55;;;6.10;99.90;;;;;;5071601;28;20166;-68
2023/01/03 05:36:24;;;;;;;1.90;1.10;;;6.10;99.90;;;;;;5082204;28;20546;-67
2023/01/03 05:38:50;;;;;;;2.65;1.00;;;6.10;99.90;;;;;;5091862;28;20032;-67
2023/01/03 05:41:58;;;;;;;5.40;1.27;;;6.10;99.90;;;;;;5092860;28;20020;-66
2023/01/03 05:44:01;;;;;;;1.50;0.90;;;6.10;99.90;;;;;;5091134;28;20054;-72
2023/01/03 05:46:27;;;;;;;1.55;0.80;;;6.10;99.90;;;;;;5056369;28;20025;-72
2023/01/03 05:48:53;;;;;;;1.90;1.08;;;6.10;99.90;;;;;;5051732;28;20037;-73
2023/01/03 05:51:18;;;;;;;2.55;0.90;;;6.10;99.90;;;;;;5052577;28;20034;-72
2023/01/03 05:53:44;;;;;;;2.53;1.20;;;6.10;99.90;;;;;;5050041;28;20021;-73
2023/01/03 05:56:09;;;;;;;2.53;1.30;;;6.10;99.90;;;;;;5052707;28;20044;-67
2023/01/03 05:58:35;;;;;;;2.42;1.20;;;6.00;99.90;;;;;;5067076;28;20020;-66
2023/01/03 06:01:08;;;;;;;0.95;0.55;;;6.00;99.90;;;;;;5063027;28;20359;-66
2023/01/03 06:03:33;;;;;;;1.67;0.90;;;5.90;99.90;;;;;;5051155;28;20505;-67
2023/01/03 06:06:08;;;;;;;2.88;1.20;;;5.80;99.90;;;;;;5051644;28;20112;-67
2023/01/03 06:08:34;;;;;;;1.80;1.40;;;5.70;99.90;;;;;;5052035;28;20094;-67
2023/01/03 06:11:05;;;;;;;5.63;1.58;;;5.70;99.90;;;;;;5051810;28;20063;-67
2023/01/03 06:13:30;;;;;;;4.60;1.27;;;5.60;99.90;;;;;;5051764;28;20021;-67
2023/01/03 06:18:49;;;;;;;5.70;1.48;;;5.60;99.90;;;;;;5083280;28;20038;-68
2023/01/03 06:21:14;;;;;;;3.72;1.20;;;5.60;99.90;;;;;;5092185;28;20385;-67
2023/01/03 06:23:40;;;;;;;3.25;1.30;;;5.60;99.90;;;;;;5090450;28;20048;-67
2023/01/03 06:26:06;;;;;;;2.42;1.30;;;5.60;99.90;;;;;;5092381;28;20032;-67
2023/01/03 06:28:31;;;;;;;1.10;1.00;;;5.50;99.90;;;;;;5091796;28;20024;-67
2023/01/03 06:30:57;;;;;;;1.48;0.80;;;5.50;99.90;;;;;;5088871;28;20622;-67
2023/01/03 06:33:22;;;;;;;2.90;1.15;;;5.50;99.90;;;;;;5072224;28;20037;-67
2023/01/03 06:35:48;;;;;;;2.65;0.90;;;5.40;99.90;;;;;;5075870;28;20036;-67
2023/01/03 06:38:14;;;;;;;1.67;1.00;;;5.40;99.90;;;;;;5051632;28;20037;-67
2023/01/03 06:40:47;;;;;;;1.88;1.10;;;5.40;99.90;;;;;;5051047;28;20029;-68
2023/01/03 06:43:12;;;;;;;1.92;0.90;;;5.40;99.90;;;;;;5051495;28;20100;-67
2023/01/03 06:53:53;;;;;;;2.40;0.95;;;5.60;99.90;;;;;;5050446;28;20107;-67
2023/01/03 06:56:20;;;;;;;2.13;1.00;;;5.70;99.90;;;;;;5051675;28;20470;-67
2023/01/03 06:58:46;;;;;;;4.00;1.83;;;5.70;99.90;;;;;;5067119;28;20029;-68
2023/01/03 07:01:13;;;;;;;3.80;1.60;;;5.70;99.90;;;;;;5066875;28;20034;-67
2023/01/03 07:03:39;;;;;;;2.83;1.17;;;5.60;99.90;;;;;;5049885;28;20036;-67
2023/01/03 07:06:04;;;;;;;1.67;1.10;;;5.50;99.90;;;;;;5051457;28;20467;-67
2023/01/03 07:08:30;;;;;;;3.40;1.27;;;5.40;99.90;;;;;;5050916;28;20037;-67
2023/01/03 07:10:56;;;;;;;3.60;1.70;;;5.30;99.90;;;;;;5049928;28;20124;-66
2023/01/03 07:16:06;;;;;;;2.25;1.83;;;5.20;99.90;;;;;;5051250;28;20070;-67
2023/01/03 07:18:32;;;;;;;3.35;1.92;;;5.10;99.90;;;;;;5050852;28;20032;-67
2023/01/03 07:20:58;;;;;;;1.60;1.30;;;5.10;99.90;;;;;;5050232;28;20021;-67
2023/01/03 07:23:23;;;;;;;3.72;1.58;;;5.00;99.90;;;;;;5050146;28;20048;-67
2023/01/03 07:25:53;;;;;;;4.40;1.70;;;5.10;99.90;;;;;;5050498;28;20040;-67
2023/01/03 07:28:19;;;;;;;1.63;1.02;;;5.10;99.90;;;;;;5032349;28;20033;-68
2023/01/03 07:30:45;;;;;;;3.72;1.48;;;5.10;99.90;;;;;;5049387;28;20037;-67
2023/01/03 07:33:13;;;;;;;5.10;2.10;;;5.10;99.90;;;;;;5050612;28;20032;-67
2023/01/03 07:35:39;;;;;;;3.22;1.55;;;5.20;99.90;;;;;;5060891;28;20472;-67
2023/01/03 07:38:05;;;;;;;3.00;1.88;;;5.20;99.90;;;;;;5090572;28;20032;-67
2023/01/03 07:40:31;;;;;;;4.05;1.33;;;5.20;99.90;;;;;;5091148;28;20077;-67
2023/01/03 07:45:55;;;;;;;3.53;1.10;;;5.30;99.90;;;;;;5045139;28;20186;-67
2023/01/03 07:48:21;;;;;;;2.47;1.50;;;5.40;99.90;;;;;;5090985;28;20466;-67
2023/01/03 07:50:47;;;;;;;2.78;1.40;;;5.40;99.90;;;;;;5090068;28;20039;-67
2023/01/03 07:53:15;;;;;;;1.08;0.98;;;5.50;99.90;;;;;;5090483;28;20069;-67
2023/01/03 07:55:43;;;;;;;2.95;1.13;;;5.50;99.90;;;;;;5090215;28;20043;-67
2023/01/03 07:58:09;;;;;;;1.67;1.25;;;5.50;99.90;;;;;;5078216;28;20468;-67
2023/01/03 08:00:34;;;;;;;1.20;1.10;;;5.60;99.90;;;;;;5068372;28;20028;-67
2023/01/03 08:03:00;;;;;;;1.92;1.30;;;5.60;99.90;;;;;;5069358;28;20086;-66
2023/01/03 08:05:26;;;;;;;4.60;1.40;;;5.60;99.90;;;;;;5070873;28;20377;-67
2023/01/03 08:07:52;;;;;;;1.15;1.05;;;5.60;99.90;;;;;;5069733;28;20031;-67
2023/01/03 08:13:18;;;;;;;3.05;1.45;;;5.70;99.90;;;;;;5050006;28;20032;-69
2023/01/03 08:15:46;;;;;;;4.95;1.38;;;5.70;99.90;;;;;;5050736;28;20040;-68
2023/01/03 08:18:12;;;;;;;4.05;2.03;;;5.70;99.90;;;;;;5062208;28;20529;-68
2023/01/03 08:20:38;;;;;;;5.38;2.33;;;5.80;99.90;;;;;;5079507;28;20484;-67
2023/01/03 08:23:04;;;;;;;3.92;2.55;;;5.80;99.90;;;;;;5093568;28;20114;-68
2023/01/03 08:25:30;;;;;;;3.20;2.28;;;5.90;99.90;;;;;;5094620;28;20541;-68
2023/01/03 08:27:59;;;;;;;4.00;2.50;;;5.90;99.90;;;;;;5093223;28;20139;-68
2023/01/03 08:30:27;;;;;;;4.72;2.92;;;5.90;99.90;;;;;;5088117;28;20036;-67
2023/01/03 08:32:54;;;;;;;2.60;2.15;;;6.00;99.90;;;;;;5053004;28;20043;-67
2023/01/03 08:35:22;;;;;;;3.38;2.47;;;6.10;99.90;;;;;;5059160;28;20052;-67
2023/01/03 08:37:48;;;;;;;3.72;2.63;;;6.10;99.90;;;;;;5093206;28;20039;-67
2023/01/03 08:40:16;;;;;;;3.22;2.47;;;6.10;99.90;;;;;;5094187;28;20133;-67
2023/01/03 08:42:42;;;;;;;2.58;2.15;;;6.20;99.90;;;;;;5093113;28;20028;-68
2023/01/03 08:45:12;;;;;;;5.53;2.97;;;6.30;99.90;;;;;;5094258;28;20035;-66
2023/01/03 08:47:40;;;;;;;4.97;2.72;;;6.30;99.90;;;;;;5093324;28;20465;-67
2023/01/03 08:50:05;;;;;;;5.07;3.10;;;6.30;99.90;;;;;;5076972;28;20037;-67
2023/01/03 08:52:31;;;;;;;3.00;2.30;;;6.40;99.90;;;;;;5053067;28;20124;-67
2023/01/03 08:54:57;;;;;;;3.55;2.47;;;6.40;99.90;;;;;;5052456;28;20263;-67
2023/01/03 08:57:22;;;;;;;6.30;2.67;;;6.60;99.90;;;;;;5058498;28;20106;-67
2023/01/03 08:59:48;;;;;;;3.63;2.20;;;6.60;99.90;;;;;;5072324;28;20024;-67
2023/01/03 09:02:13;;;;;;;2.38;1.90;;;6.70;99.90;;;;;;5073413;28;20047;-67
2023/01/03 09:04:39;;;;;;;1.67;1.58;;;6.80;99.90;;;;;;5072556;28;20100;-67
2023/01/03 09:07:04;;;;;;;2.00;1.80;;;6.80;99.90;;;;;;5073235;28;20170;-67
2023/01/03 09:09:30;;;;;;;3.95;2.03;;;6.90;99.90;;;;;;5072888;28;20036;-67
2023/01/03 09:11:56;;;;;;;3.80;2.10;;;7.00;99.90;;;;;;5072751;28;20886;-67
2023/01/03 09:14:21;;;;;;;3.13;2.03;;;7.10;99.90;;;;;;5072856;28;20082;-67
2023/01/03 09:16:47;;;;;;;4.57;2.90;;;7.20;99.90;;;;;;5054490;28;20044;-67
2023/01/03 09:19:12;;;;;;;5.43;3.33;;;7.30;99.90;;;;;;5072908;28;20032;-67
2023/01/03 09:21:38;;;;;;;5.93;2.95;;;7.30;99.90;;;;;;5065697;28;20037;-67
2023/01/03 09:24:04;;;;;;;4.60;3.17;;;7.40;99.90;;;;;;5051668;28;20049;-67
2023/01/03 09:26:30;;;;;;;7.35;3.47;;;7.40;99.90;;;;;;5052759;28;20025;-67
2023/01/03 09:28:55;;;;;;;4.57;3.40;;;7.40;99.90;;;;;;5050893;28;20021;-67
2023/01/03 09:31:21;;;;;;;6.50;3.55;;;7.50;99.90;;;;;;5053064;28;20024;-66
2023/01/03 09:33:46;;;;;;;10.25;3.65;;;7.50;99.90;;;;;;5051409;28;20070;-67
2023/01/03 09:36:12;;;;;;;5.55;3.53;;;7.50;99.90;;;;;;5072508;28;20435;-68
2023/01/03 09:38:38;;;;;;;5.50;3.50;;;7.50;99.90;;;;;;5092288;28;20376;-68
2023/01/03 09:41:16;;;;;;;4.28;2.85;;;7.60;99.90;;;;;;5092702;28;20358;-68
2023/01/03 09:43:44;;;;;;;4.38;2.65;;;7.60;99.90;;;;;;5091741;28;20024;-67
2023/01/03 09:46:24;;;;;;;4.55;3.53;;;7.60;99.90;;;;;;5092674;28;20123;-67
2023/01/03 09:48:51;;;;;;;9.95;3.45;;;7.70;99.90;;;;;;5088862;28;20103;-68
2023/01/03 10:03:45;;;;;;;7.80;3.40;;;7.90;99.90;;;;;;5051872;28;20087;-68
2023/01/03 10:06:30;;;;;;;4.32;2.35;;;8.00;99.90;;;;;;5052330;28;20455;-68
2023/01/03 10:09:34;;;;;;;5.35;2.78;;;8.00;99.90;;;;;;5051093;28;20116;-68
2023/01/03 10:12:08;;;;;;;5.82;2.40;;;8.10;99.90;;;;;;5051650;28;20016;-67
2023/01/03 10:14:45;;;;;;;11.32;3.42;;;8.10;99.90;;;;;;5051850;28;20455;-67
2023/01/03 10:17:25;;;;;;;5.10;3.33;;;8.10;99.90;;;;;;5052081;28;20109;-68
2023/01/03 10:20:01;;;;;;;;;;;8.20;99.90;;;;;;5058845;28;20039;-68
2023/01/03 10:22:29;;;;;;;6.95;3.10;;;8.20;99.90;;;;;;5053978;28;19913;-67
2023/01/03 10:25:03;;;;;;;3.97;2.97;;;8.20;99.90;;;;;;5050689;28;20428;-67
2023/01/03 10:27:34;;;;;;;6.38;2.90;;;8.10;99.90;;;;;;5051568;28;20028;-67
2023/01/03 10:30:03;;;;;;;6.68;3.05;;;8.10;99.90;;;;;;5050846;28;20089;-67
2023/01/03 10:32:34;;;;;;;5.28;2.55;;;7.90;99.90;;;;;;5051903;28;20454;-67
2023/01/03 10:35:17;;;;;;;5.28;2.95;;;7.90;99.90;;;;;;5052088;28;20029;-67
2023/01/03 10:37:44;;;;;;;8.30;4.07;;;7.90;99.90;;;;;;5082810;28;20034;-67
2023/01/03 10:40:11;;;;;;;7.90;4.32;;;7.80;99.90;;;;;;5091346;28;20402;-67
2023/01/03 10:42:38;;;;;;;9.13;4.65;;;7.80;99.90;;;;;;5091640;28;20056;-67
2023/01/03 10:45:19;;;;;;;7.32;4.15;;;7.80;99.90;;;;;;5090322;28;20032;-67
2023/01/03 10:47:58;;;;;;;9.43;4.47;;;7.80;99.90;;;;;;5042412;28;20056;-67
2023/01/03 10:50:23;;;;;;;9.80;4.40;;;7.70;99.90;;;;;;5051808;28;20029;-67
2023/01/03 10:52:57;;;;;;;7.95;4.68;;;7.80;99.90;;;;;;5050149;28;20052;-68
2023/01/03 10:55:25;;;;;;;7.70;4.32;;;7.80;99.90;;;;;;5051319;28;20040;-67
2023/01/03 10:57:50;;;;;;;8.32;4.28;;;7.90;99.90;;;;;;5058848;28;20074;-66
2023/01/03 11:00:31;;;;;;;6.85;4.03;;;8.00;99.90;;;;;;5071306;28;20436;-67
2023/01/03 11:03:08;;;;;;;6.20;3.60;;;8.10;99.90;;;;;;5070059;28;20029;-67
2023/01/03 11:05:35;;;;;;;7.10;4.78;;;8.20;99.90;;;;;;5071040;28;20497;-67
2023/01/03 11:08:11;;;;;;;7.82;4.78;;;8.30;99.90;;;;;;5070231;28;20863;-68
2023/01/03 11:10:47;;;;;;;4.57;3.70;;;8.40;99.90;;;;;;5071227;28;20085;-68
2023/01/03 11:13:23;;;;;;;9.18;3.78;;;8.50;99.90;;;;;;5085517;28;20460;-66
2023/01/03 11:15:57;;;;;;;7.05;3.90;;;8.60;99.90;;;;;;5090437;28;20081;-67
2023/01/03 11:18:26;;;;;;;8.40;3.90;;;8.70;99.90;;;;;;5050788;28;20032;-67
2023/01/03 11:21:24;;;;;;;5.53;3.55;;;8.70;99.90;;;;;;5050262;28;20458;-67
2023/01/03 11:24:16;;;;;;;4.90;3.15;;;8.80;99.90;;;;;;5017305;28;20079;-67
2023/01/03 11:26:47;;;;;;;6.43;3.80;;;8.90;99.90;;;;;;5050549;28;20029;-67
2023/01/03 11:29:15;;;;;;;6.15;3.85;;;8.90;99.90;;;;;;5050702;28;20036;-67
2023/01/03 11:31:51;;;;;;;6.07;3.63;;;9.00;99.90;;;;;;5050632;28;20017;-68
2023/01/03 11:34:41;;;;;;;6.15;2.80;;;9.00;99.90;;;;;;5050525;28;20033;-66
2023/01/03 11:37:19;;;;;;;6.70;3.27;;;9.00;99.90;;;;;;5085838;28;20093;-66
2023/01/03 11:39:59;;;;;;;6.15;4.00;;;8.90;99.90;;;;;;5090425;28;20261;-67
2023/01/03 11:42:52;;;;;;;6.65;3.38;;;9.00;99.90;;;;;;5074624;28;20421;-66
2023/01/03 11:45:28;;;;;;;10.07;3.72;;;9.00;99.90;;;;;;5051254;28;20033;-67
2023/01/03 11:48:23;;;;;;;8.40;3.63;;;9.20;99.90;;;;;;5049972;28;20036;-66
2023/01/03 11:50:48;;;;;;;8.65;4.07;;;9.30;99.90;;;;;;5043733;28;20021;-67
2023/01/03 11:53:36;;;;;;;5.28;3.13;;;9.30;99.90;;;;;;5054715;28;20100;-67
2023/01/03 11:56:26;;;;;;;5.78;3.15;;;9.30;99.90;;;;;;5054381;28;20074;-67
2023/01/03 11:59:19;;;;;;;6.95;2.58;;;9.30;99.90;;;;;;5071684;28;20086;-67
2023/01/03 12:02:22;;;;;;;3.75;2.47;;;9.40;99.90;;;;;;5073906;28;20492;-67
2023/01/03 12:05:21;;;;;;;14.77;5.28;;;9.50;99.90;;;;;;5073472;28;20126;-67
2023/01/03 12:08:08;;;;;;;6.78;3.10;;;9.60;99.90;;;;;;5073496;28;20059;-67
2023/01/03 12:10:46;;;;;;;8.73;5.05;;;9.60;99.90;;;;;;5073986;28;20373;-67
2023/01/03 12:13:50;;;;;;;8.60;5.15;;;9.70;99.90;;;;;;5074265;28;20104;-67
2023/01/03 12:16:22;;;;;;;5.68;3.78;;;9.70;99.90;;;;;;5094828;28;20173;-67
2023/01/03 12:19:01;;;;;;;6.38;3.72;;;9.70;99.90;;;;;;5093485;28;20036;-67
2023/01/03 12:21:41;;;;;;;5.90;2.42;;;9.70;99.90;;;;;;5094524;28;20028;-67
2023/01/03 12:24:40;;;;;;;3.92;1.80;;;9.70;99.90;;;;;;5093976;28;20056;-68
2023/01/03 12:27:33;;;;;;;5.90;3.38;;;9.70;99.90;;;;;;5089504;28;20040;-67
2023/01/03 12:30:06;;;;;;;2.65;1.85;;;9.70;99.90;;;;;;5093270;28;20016;-67
2023/01/03 12:32:44;;;;;;;6.78;2.20;;;9.80;99.90;;;;;;5094553;28;20388;-67
2023/01/03 12:35:18;;;;;;;4.50;2.17;;;9.90;99.90;;;;;;5091061;28;20033;-67
2023/01/03 12:37:48;;;;;;;5.53;1.80;;;9.80;99.90;;;;;;5072706;28;20029;-68
2023/01/03 12:40:38;;;;;;;4.72;1.95;;;9.80;99.90;;;;;;5073784;28;20020;-67
2023/01/03 12:43:18;;;;;;;5.50;1.92;;;9.90;99.90;;;;;;5052688;28;20540;-67
2023/01/03 12:45:52;;;;;;;4.03;2.08;;;10.00;99.90;;;;;;5052769;28;20123;-67
2023/01/03 12:48:39;;;;;;;6.20;2.70;;;10.10;99.90;;;;;;5053404;28;20029;-67
2023/01/03 12:51:05;;;;;;;3.30;2.13;;;10.10;99.90;;;;;;5053587;28;20029;-67
2023/01/03 12:53:42;;;;;;;5.20;2.38;;;10.10;99.90;;;;;;5052873;28;20406;-67
2023/01/03 12:56:29;;;;;;;7.15;2.63;;;10.20;99.90;;;;;;5053720;28;20486;-67
2023/01/03 12:58:57;;;;;;;4.43;1.30;;;10.40;99.90;;;;;;5070075;28;20435;-67
2023/01/03 13:01:35;;;;;;;2.80;1.90;;;10.60;99.90;;;;;;5073855;28;20047;-67
2023/01/03 13:04:17;;;;;;;4.40;2.17;;;10.70;99.90;;;;;;5072589;28;20445;-67
2023/01/03 13:06:50;;;;;;;4.80;2.00;;;10.80;99.90;;;;;;5072920;28;20074;-67
2023/01/03 13:09:30;;;;;;;3.03;2.28;;;10.90;99.90;;;;;;5072851;28;20025;-67
2023/01/03 13:12:03;;;;;;;2.28;1.88;;;11.10;99.90;;;;;;5060785;28;20367;-67
2023/01/03 13:14:29;;;;;;;4.63;2.00;;;11.20;99.90;;;;;;5053075;28;20156;-67
2023/01/03 13:17:09;;;;;;;3.30;2.47;;;11.30;99.90;;;;;;5052514;28;20482;-67
2023/01/03 13:19:34;;;;;;;3.13;1.75;;;11.40;99.90;;;;;;5052664;28;20025;-67
2023/01/03 13:22:22;;;;;;;4.03;1.40;;;11.50;99.90;;;;;;5052559;28;20047;-67
2023/01/03 13:24:50;;;;;;;2.47;1.50;;;11.60;99.90;;;;;;5051998;28;20375;-67
2023/01/03 13:27:24;;;;;;;1.35;1.10;;;11.70;99.90;;;;;;5053031;28;20083;-67
2023/01/03 13:29:49;;;;;;;3.40;1.02;;;11.70;99.90;;;;;;5050873;28;20546;-67
2023/01/03 13:32:21;;;;;;;4.10;1.15;;;11.70;99.90;;;;;;5056927;28;20108;-67
2023/01/03 13:34:52;;;;;;;2.15;1.20;;;11.70;99.90;;;;;;5084326;28;20059;-68
2023/01/03 13:37:28;;;;;;;2.03;1.05;;;11.70;99.90;;;;;;5053050;28;20108;-67
2023/01/03 13:40:15;;;;;;;2.50;1.60;;;11.70;99.90;;;;;;5051488;28;20155;-67
2023/01/03 13:42:42;;;;;;;5.72;1.80;;;11.80;99.90;;;;;;5051719;28;20032;-69
2023/01/03 13:45:14;;;;;;;4.13;1.30;;;11.90;99.90;;;;;;5052682;28;20061;-67
2023/01/03 13:47:48;;;;;;;3.47;1.00;;;11.90;99.90;;;;;;5051880;28;20036;-67
2023/01/03 13:50:32;;;;;;;1.98;1.02;;;11.80;99.90;;;;;;5052640;28;20033;-67
2023/01/03 13:53:04;;;;;;;4.13;1.05;;;11.70;99.90;;;;;;5051408;28;20098;-67
2023/01/03 13:55:32;;;;;;;2.70;1.17;;;11.60;99.90;;;;;;5052396;28;20032;-67
2023/01/03 13:57:58;;;;;;;3.97;1.40;;;11.50;99.90;;;;;;5061233;28;20766;-67
2023/01/03 14:00:24;;;;;;;3.00;0.73;;;11.50;99.90;;;;;;5072377;28;20025;-67
2023/01/03 14:03:01;;;;;;;2.10;1.42;;;11.40;99.90;;;;;;5068728;28;20131;-67
2023/01/03 14:05:49;;;;;;;3.83;1.60;;;11.30;99.90;;;;;;5072246;28;20037;-67
2023/01/03 14:08:27;;;;;;;2.88;1.40;;;11.30;99.90;;;;;;5071861;28;20066;-67
2023/01/03 14:11:14;;;;;;;2.30;1.40;;;11.20;99.90;;;;;;5064981;28;20096;-67
2023/01/03 14:13:44;;;;;;;1.80;1.23;;;11.20;99.90;;;;;;5050168;28;20029;-67
2023/01/03 14:16:52;;;;;;;1.92;0.47;;;11.10;99.90;;;;;;5052151;28;20034;-67
2023/01/03 14:19:23;;;;;;;1.40;0.68;;;11.10;99.90;;;;;;4970528;28;20392;-67
2023/01/03 14:22:09;;;;;;;0.73;0.60;;;11.00;99.90;;;;;;5037196;28;20040;-67